Home > Products > Valid Products > TAF

000
FTUS41 KBOX 040308 AAA
TAFPVD
TAF AMD
KPVD 040308Z 0403/0424 19005KT P6SM FEW120
     FM040600 20005KT P6SM SCT080
     FM041700 20009KT P6SM FEW250
     FM042100 20012G22KT P6SM SKC=



000
FTUS41 KBOX 040308 AAA
TAFPVD
TAF AMD
KPVD 040308Z 0403/0424 19005KT P6SM FEW120
     FM040600 20005KT P6SM SCT080
     FM041700 20009KT P6SM FEW250
     FM042100 20012G22KT P6SM SKC=



000
FTUS41 KBOX 040308 AAA
TAFPVD
TAF AMD
KPVD 040308Z 0403/0424 19005KT P6SM FEW120
     FM040600 20005KT P6SM SCT080
     FM041700 20009KT P6SM FEW250
     FM042100 20012G22KT P6SM SKC=



000
FTUS41 KBOX 040307 AAA
TAFBDL
TAF AMD
KBDL 040307Z 0403/0506 19008KT P6SM FEW120
     FM040600 VRB03KT P6SM FEW110
     FM041600 21007KT P6SM FEW250
     FM041900 22011KT P6SM SCT250=



000
FTUS41 KBOX 040307 AAA
TAFBDL
TAF AMD
KBDL 040307Z 0403/0506 19008KT P6SM FEW120
     FM040600 VRB03KT P6SM FEW110
     FM041600 21007KT P6SM FEW250
     FM041900 22011KT P6SM SCT250=



000
FTUS41 KBOX 040307 AAA
TAFBDL
TAF AMD
KBDL 040307Z 0403/0506 19008KT P6SM FEW120
     FM040600 VRB03KT P6SM FEW110
     FM041600 21007KT P6SM FEW250
     FM041900 22011KT P6SM SCT250=



000
FTUS41 KBOX 040307 AAA
TAFBDL
TAF AMD
KBDL 040307Z 0403/0506 19008KT P6SM FEW120
     FM040600 VRB03KT P6SM FEW110
     FM041600 21007KT P6SM FEW250
     FM041900 22011KT P6SM SCT250=



000
FTUS41 KBOX 040306 AAA
TAFBOS
TAF AMD
KBOS 040306Z 0403/0506 21008KT P6SM SCT200
     FM040600 23008KT P6SM SCT100
     FM042100 20012G21KT P6SM FEW250=



000
FTUS41 KBOX 040306 AAA
TAFBOS
TAF AMD
KBOS 040306Z 0403/0506 21008KT P6SM SCT200
     FM040600 23008KT P6SM SCT100
     FM042100 20012G21KT P6SM FEW250=



000
FTUS41 KBOX 032321
TAFBOS
TAF
KBOS 032321Z 0400/0506 19009KT P6SM BKN180
     FM040500 23008KT P6SM SCT100
     FM042100 20012G21KT P6SM FEW250=



000
FTUS41 KBOX 032321
TAFACK
TAF
KACK 032321Z 0400/0424 20008KT P6SM SCT130
     FM041700 21012KT P6SM FEW250=



000
FTUS41 KBOX 032321
TAFBAF
TAF
KBAF 032321Z 0400/0424 00000KT P6SM BKN120
     FM040300 00000KT P6SM FEW080
     FM041600 23007KT P6SM FEW250
     FM041900 22011KT P6SM SCT250=



000
FTUS41 KBOX 032321
TAFBOS
TAF
KBOS 032321Z 0400/0506 19009KT P6SM BKN180
     FM040500 23008KT P6SM SCT100
     FM042100 20012G21KT P6SM FEW250=



000
FTUS41 KBOX 032321
TAFBDL
TAF
KBDL 032321Z 0400/0506 19007KT P6SM BKN110
     FM040500 VRB03KT P6SM FEW110
     FM041600 21007KT P6SM FEW250
     FM041900 22011KT P6SM SCT250=



000
FTUS41 KBOX 032321
TAFPVD
TAF
KPVD 032321Z 0400/0424 17008KT P6SM FEW120
     FM040400 21005KT P6SM SCT080
     FM041700 20009KT P6SM FEW250
     FM042100 20012G22KT P6SM SKC=



000
FTUS41 KBOX 032321
TAFORH
TAF
KORH 032321Z 0400/0424 12006KT P6SM BKN120
     FM040100 22006KT P6SM SCT080
     FM041900 23010KT P6SM FEW250=



000
FTUS41 KBOX 032321
TAFBOS
TAF
KBOS 032321Z 0400/0506 19009KT P6SM BKN180
     FM040500 23008KT P6SM SCT100
     FM042100 20012G21KT P6SM FEW250=



000
FTUS41 KBOX 032321
TAFACK
TAF
KACK 032321Z 0400/0424 20008KT P6SM SCT130
     FM041700 21012KT P6SM FEW250=



000
FTUS41 KBOX 032321
TAFBAF
TAF
KBAF 032321Z 0400/0424 00000KT P6SM BKN120
     FM040300 00000KT P6SM FEW080
     FM041600 23007KT P6SM FEW250
     FM041900 22011KT P6SM SCT250=



000
FTUS41 KBOX 032321
TAFBDL
TAF
KBDL 032321Z 0400/0506 19007KT P6SM BKN110
     FM040500 VRB03KT P6SM FEW110
     FM041600 21007KT P6SM FEW250
     FM041900 22011KT P6SM SCT250=



000
FTUS41 KBOX 032321
TAFPVD
TAF
KPVD 032321Z 0400/0424 17008KT P6SM FEW120
     FM040400 21005KT P6SM SCT080
     FM041700 20009KT P6SM FEW250
     FM042100 20012G22KT P6SM SKC=



000
FTUS41 KBOX 032321
TAFBDL
TAF
KBDL 032321Z 0400/0506 19007KT P6SM BKN110
     FM040500 VRB03KT P6SM FEW110
     FM041600 21007KT P6SM FEW250
     FM041900 22011KT P6SM SCT250=



000
FTUS41 KBOX 032321
TAFBAF
TAF
KBAF 032321Z 0400/0424 00000KT P6SM BKN120
     FM040300 00000KT P6SM FEW080
     FM041600 23007KT P6SM FEW250
     FM041900 22011KT P6SM SCT250=



000
FTUS41 KBOX 032321
TAFPVD
TAF
KPVD 032321Z 0400/0424 17008KT P6SM FEW120
     FM040400 21005KT P6SM SCT080
     FM041700 20009KT P6SM FEW250
     FM042100 20012G22KT P6SM SKC=



000
FTUS41 KBOX 032321
TAFORH
TAF
KORH 032321Z 0400/0424 12006KT P6SM BKN120
     FM040100 22006KT P6SM SCT080
     FM041900 23010KT P6SM FEW250=



000
FTUS41 KBOX 032321
TAFORH
TAF
KORH 032321Z 0400/0424 12006KT P6SM BKN120
     FM040100 22006KT P6SM SCT080
     FM041900 23010KT P6SM FEW250=



000
FTUS41 KBOX 032321
TAFACK
TAF
KACK 032321Z 0400/0424 20008KT P6SM SCT130
     FM041700 21012KT P6SM FEW250=



000
FTUS41 KBOX 032321
TAFBAF
TAF
KBAF 032321Z 0400/0424 00000KT P6SM BKN120
     FM040300 00000KT P6SM FEW080
     FM041600 23007KT P6SM FEW250
     FM041900 22011KT P6SM SCT250=



000
FTUS41 KBOX 032321
TAFPVD
TAF
KPVD 032321Z 0400/0424 17008KT P6SM FEW120
     FM040400 21005KT P6SM SCT080
     FM041700 20009KT P6SM FEW250
     FM042100 20012G22KT P6SM SKC=



000
FTUS41 KBOX 032321
TAFBOS
TAF
KBOS 032321Z 0400/0506 19009KT P6SM BKN180
     FM040500 23008KT P6SM SCT100
     FM042100 20012G21KT P6SM FEW250=



000
FTUS41 KBOX 032321
TAFBDL
TAF
KBDL 032321Z 0400/0506 19007KT P6SM BKN110
     FM040500 VRB03KT P6SM FEW110
     FM041600 21007KT P6SM FEW250
     FM041900 22011KT P6SM SCT250=



000
FTUS41 KBOX 032321
TAFORH
TAF
KORH 032321Z 0400/0424 12006KT P6SM BKN120
     FM040100 22006KT P6SM SCT080
     FM041900 23010KT P6SM FEW250=



000
FTUS41 KBOX 032321
TAFACK
TAF
KACK 032321Z 0400/0424 20008KT P6SM SCT130
     FM041700 21012KT P6SM FEW250=



000
FTUS41 KBOX 032102 AAB
TAFPVD
TAF AMD
KPVD 032102Z 0321/0418 14014KT P6SM SCT045 SCT120 BKN250
     FM032300 16011KT P6SM SCT045 SCT120 BKN250
     FM040200 20007KT P6SM BKN250
     FM041700 20010G17KT P6SM SCT250=



000
FTUS41 KBOX 032102 AAB
TAFPVD
TAF AMD
KPVD 032102Z 0321/0418 14014KT P6SM SCT045 SCT120 BKN250
     FM032300 16011KT P6SM SCT045 SCT120 BKN250
     FM040200 20007KT P6SM BKN250
     FM041700 20010G17KT P6SM SCT250=



000
FTUS41 KBOX 032102 AAB
TAFPVD
TAF AMD
KPVD 032102Z 0321/0418 14014KT P6SM SCT045 SCT120 BKN250
     FM032300 16011KT P6SM SCT045 SCT120 BKN250
     FM040200 20007KT P6SM BKN250
     FM041700 20010G17KT P6SM SCT250=



000
FTUS41 KBOX 032101 AAA
TAFBDL
TAF AMD
KBDL 032101Z 0321/0424 14004KT P6SM VCSH BKN050 BKN120
     FM032300 17005KT P6SM SCT120 BKN250
     FM040300 18004KT P6SM FEW250
     FM040600 00000KT P6SM FEW250
     FM041500 19006KT P6SM FEW250
     FM041800 22010G18KT P6SM SCT250=



000
FTUS41 KBOX 032101 AAA
TAFBDL
TAF AMD
KBDL 032101Z 0321/0424 14004KT P6SM VCSH BKN050 BKN120
     FM032300 17005KT P6SM SCT120 BKN250
     FM040300 18004KT P6SM FEW250
     FM040600 00000KT P6SM FEW250
     FM041500 19006KT P6SM FEW250
     FM041800 22010G18KT P6SM SCT250=



000
FTUS41 KBOX 032100 AAA
TAFBOS
TAF AMD
KBOS 032100Z 0321/0424 07006KT P6SM FEW040 BKN120 BKN250
     FM040000 15011KT P6SM FEW040 SCT120 BKN250
     FM040300 22009KT P6SM BKN250
     FM042000 21014G22KT P6SM FEW250=



000
FTUS41 KBOX 032100 AAA
TAFBOS
TAF AMD
KBOS 032100Z 0321/0424 07006KT P6SM FEW040 BKN120 BKN250
     FM040000 15011KT P6SM FEW040 SCT120 BKN250
     FM040300 22009KT P6SM BKN250
     FM042000 21014G22KT P6SM FEW250=



000
FTUS41 KBOX 032100 AAA
TAFBOS
TAF AMD
KBOS 032100Z 0321/0424 07006KT P6SM FEW040 BKN120 BKN250
     FM040000 15011KT P6SM FEW040 SCT120 BKN250
     FM040300 22009KT P6SM BKN250
     FM042000 21014G22KT P6SM FEW250=



000
FTUS41 KBOX 032100 AAA
TAFBOS
TAF AMD
KBOS 032100Z 0321/0424 07006KT P6SM FEW040 BKN120 BKN250
     FM040000 15011KT P6SM FEW040 SCT120 BKN250
     FM040300 22009KT P6SM BKN250
     FM042000 21014G22KT P6SM FEW250=



000
FTUS41 KBOX 031757 AAA
TAFPVD
TAF AMD
KPVD 031757Z 0318/0418 15014G20KT P6SM SCT045 SCT120 BKN250
     FM032300 16011KT P6SM SCT045 SCT120 BKN250
     FM040200 20007KT P6SM BKN250
     FM041700 20010G17KT P6SM SCT250=



000
FTUS41 KBOX 031757 AAA
TAFPVD
TAF AMD
KPVD 031757Z 0318/0418 15014G20KT P6SM SCT045 SCT120 BKN250
     FM032300 16011KT P6SM SCT045 SCT120 BKN250
     FM040200 20007KT P6SM BKN250
     FM041700 20010G17KT P6SM SCT250=



000
FTUS41 KBOX 031757 AAA
TAFPVD
TAF AMD
KPVD 031757Z 0318/0418 15014G20KT P6SM SCT045 SCT120 BKN250
     FM032300 16011KT P6SM SCT045 SCT120 BKN250
     FM040200 20007KT P6SM BKN250
     FM041700 20010G17KT P6SM SCT250=



000
FTUS41 KBOX 031757 AAA
TAFPVD
TAF AMD
KPVD 031757Z 0318/0418 15014G20KT P6SM SCT045 SCT120 BKN250
     FM032300 16011KT P6SM SCT045 SCT120 BKN250
     FM040200 20007KT P6SM BKN250
     FM041700 20010G17KT P6SM SCT250=



000
FTUS41 KBOX 031737
TAFORH
TAF
KORH 031737Z 0318/0418 VRB03KT P6SM SCT045 BKN100
     FM040100 22006KT P6SM SCT250=



000
FTUS41 KBOX 031737
TAFACK
TAF
KACK 031737Z 0318/0418 17011KT P6SM SCT250
     FM041200 21012KT P6SM SKC=



000
FTUS41 KBOX 031737
TAFPVD
TAF
KPVD 031737Z 0318/0418 15011KT P6SM SCT045 SCT120 BKN250
     FM040200 20007KT P6SM BKN250
     FM041700 20010G17KT P6SM SCT250=



000
FTUS41 KBOX 031737
TAFBAF
TAF
KBAF 031737Z 0318/0418 VRB03KT P6SM VCSH BKN050 BKN120
     FM032300 20004KT P6SM BKN120
     FM040300 00000KT P6SM FEW250
     FM041600 23008KT P6SM FEW250=



000
FTUS41 KBOX 031737
TAFBDL
TAF
KBDL 031737Z 0318/0424 14004KT P6SM VCSH BKN050 BKN120
     FM032200 17005KT P6SM SCT120 BKN250
     FM040300 18004KT P6SM FEW250
     FM040600 00000KT P6SM FEW250
     FM041500 19006KT P6SM FEW250
     FM041800 22010G18KT P6SM SCT250=



000
FTUS41 KBOX 031737
TAFBOS
TAF
KBOS 031737Z 0318/0424 10011KT P6SM FEW040 SCT250
     FM032300 15011KT P6SM FEW040 SCT120 BKN250
     FM040300 22009KT P6SM BKN250
     FM042000 21014G22KT P6SM FEW250=



000
FTUS41 KBOX 031737
TAFBDL
TAF
KBDL 031737Z 0318/0424 14004KT P6SM VCSH BKN050 BKN120
     FM032200 17005KT P6SM SCT120 BKN250
     FM040300 18004KT P6SM FEW250
     FM040600 00000KT P6SM FEW250
     FM041500 19006KT P6SM FEW250
     FM041800 22010G18KT P6SM SCT250=



000
FTUS41 KBOX 031737
TAFORH
TAF
KORH 031737Z 0318/0418 VRB03KT P6SM SCT045 BKN100
     FM040100 22006KT P6SM SCT250=



000
FTUS41 KBOX 031737
TAFBAF
TAF
KBAF 031737Z 0318/0418 VRB03KT P6SM VCSH BKN050 BKN120
     FM032300 20004KT P6SM BKN120
     FM040300 00000KT P6SM FEW250
     FM041600 23008KT P6SM FEW250=



000
FTUS41 KBOX 031737
TAFACK
TAF
KACK 031737Z 0318/0418 17011KT P6SM SCT250
     FM041200 21012KT P6SM SKC=



000
FTUS41 KBOX 031737
TAFPVD
TAF
KPVD 031737Z 0318/0418 15011KT P6SM SCT045 SCT120 BKN250
     FM040200 20007KT P6SM BKN250
     FM041700 20010G17KT P6SM SCT250=



000
FTUS41 KBOX 031737
TAFBOS
TAF
KBOS 031737Z 0318/0424 10011KT P6SM FEW040 SCT250
     FM032300 15011KT P6SM FEW040 SCT120 BKN250
     FM040300 22009KT P6SM BKN250
     FM042000 21014G22KT P6SM FEW250=



000
FTUS41 KBOX 031458 AAA
TAFPVD
TAF AMD
KPVD 031458Z 0315/0412 15006KT P6SM SCT080
     FM031800 16010KT P6SM FEW045 BKN080
     FM040100 18006KT P6SM SCT080=



000
FTUS41 KBOX 031458 AAA
TAFPVD
TAF AMD
KPVD 031458Z 0315/0412 15006KT P6SM SCT080
     FM031800 16010KT P6SM FEW045 BKN080
     FM040100 18006KT P6SM SCT080=



000
FTUS41 KBOX 031458 AAA
TAFPVD
TAF AMD
KPVD 031458Z 0315/0412 15006KT P6SM SCT080
     FM031800 16010KT P6SM FEW045 BKN080
     FM040100 18006KT P6SM SCT080=



000
FTUS41 KBOX 031458 AAA
TAFPVD
TAF AMD
KPVD 031458Z 0315/0412 15006KT P6SM SCT080
     FM031800 16010KT P6SM FEW045 BKN080
     FM040100 18006KT P6SM SCT080=



000
FTUS41 KBOX 031456 AAA
TAFBDL
TAF AMD
KBDL 031456Z 0315/0418 00000KT P6SM FEW045 SCT200
     FM032000 25005KT P6SM BKN080
     FM032300 20005KT P6SM SCT100
     FM040700 00000KT P6SM FEW250
     FM041500 21006KT P6SM FEW250=



000
FTUS41 KBOX 031456 AAA
TAFBDL
TAF AMD
KBDL 031456Z 0315/0418 00000KT P6SM FEW045 SCT200
     FM032000 25005KT P6SM BKN080
     FM032300 20005KT P6SM SCT100
     FM040700 00000KT P6SM FEW250
     FM041500 21006KT P6SM FEW250=



000
FTUS41 KBOX 031455 AAA
TAFBOS
TAF AMD
KBOS 031455Z 0315/0418 15006KT P6SM SKC
     FM031800 12008KT P6SM FEW050 SCT120
     FM032100 14008KT P6SM BKN080
     FM040000 20007KT P6SM SCT110=



000
FTUS41 KBOX 031455 AAA
TAFBOS
TAF AMD
KBOS 031455Z 0315/0418 15006KT P6SM SKC
     FM031800 12008KT P6SM FEW050 SCT120
     FM032100 14008KT P6SM BKN080
     FM040000 20007KT P6SM SCT110=



000
FTUS41 KBOX 031455 AAA
TAFBOS
TAF AMD
KBOS 031455Z 0315/0418 15006KT P6SM SKC
     FM031800 12008KT P6SM FEW050 SCT120
     FM032100 14008KT P6SM BKN080
     FM040000 20007KT P6SM SCT110=



000
FTUS41 KBOX 031455 AAA
TAFBOS
TAF AMD
KBOS 031455Z 0315/0418 15006KT P6SM SKC
     FM031800 12008KT P6SM FEW050 SCT120
     FM032100 14008KT P6SM BKN080
     FM040000 20007KT P6SM SCT110=



000
FTUS41 KBOX 031122
TAFBOS
TAF
KBOS 031122Z 0312/0418 22006KT P6SM BKN100
     FM031400 14004KT P6SM BKN200
     FM031800 11008KT P6SM SCT250
     FM032100 14008KT P6SM BKN080
     FM040000 20007KT P6SM SCT110=



000
FTUS41 KBOX 031122
TAFPVD
TAF
KPVD 031122Z 0312/0412 22005KT P6SM BKN080
     FM031500 16006KT P6SM SCT080
     FM031800 16010KT P6SM BKN080
     FM040100 18006KT P6SM SCT080=



000
FTUS41 KBOX 031122
TAFORH
TAF
KORH 031122Z 0312/0412 28005KT P6SM BKN080
     FM032300 19004KT P6SM SCT070
     FM040500 25006KT P6SM FEW250=



000
FTUS41 KBOX 031122
TAFACK
TAF
KACK 031122Z 0312/0412 17004KT P6SM SCT080
     FM031500 17008KT P6SM BKN080
     FM031800 19009KT P6SM SCT080=



000
FTUS41 KBOX 031122
TAFBOS
TAF
KBOS 031122Z 0312/0418 22006KT P6SM BKN100
     FM031400 14004KT P6SM BKN200
     FM031800 11008KT P6SM SCT250
     FM032100 14008KT P6SM BKN080
     FM040000 20007KT P6SM SCT110=



000
FTUS41 KBOX 031122
TAFPVD
TAF
KPVD 031122Z 0312/0412 22005KT P6SM BKN080
     FM031500 16006KT P6SM SCT080
     FM031800 16010KT P6SM BKN080
     FM040100 18006KT P6SM SCT080=



000
FTUS41 KBOX 031122
TAFORH
TAF
KORH 031122Z 0312/0412 28005KT P6SM BKN080
     FM032300 19004KT P6SM SCT070
     FM040500 25006KT P6SM FEW250=



000
FTUS41 KBOX 031122
TAFBAF
TAF
KBAF 031122Z 0312/0412 00000KT P6SM SKC
     FM031800 28006KT P6SM SCT080
     FM032100 27006KT P6SM BKN070
     FM032200 26005KT P6SM SCT070
     FM040300 00000KT P6SM SCT100=



000
FTUS41 KBOX 031122
TAFACK
TAF
KACK 031122Z 0312/0412 17004KT P6SM SCT080
     FM031500 17008KT P6SM BKN080
     FM031800 19009KT P6SM SCT080=



000
FTUS41 KBOX 031122
TAFBDL
TAF
KBDL 031122Z 0312/0418 00000KT P6SM SCT100
     FM032000 25005KT P6SM BKN080
     FM032300 20005KT P6SM SCT100
     FM040700 00000KT P6SM FEW250
     FM041500 21006KT P6SM FEW250=



000
FTUS41 KBOX 031122
TAFBDL
TAF
KBDL 031122Z 0312/0418 00000KT P6SM SCT100
     FM032000 25005KT P6SM BKN080
     FM032300 20005KT P6SM SCT100
     FM040700 00000KT P6SM FEW250
     FM041500 21006KT P6SM FEW250=



000
FTUS41 KBOX 031122
TAFBOS
TAF
KBOS 031122Z 0312/0418 22006KT P6SM BKN100
     FM031400 14004KT P6SM BKN200
     FM031800 11008KT P6SM SCT250
     FM032100 14008KT P6SM BKN080
     FM040000 20007KT P6SM SCT110=



000
FTUS41 KBOX 031122
TAFBAF
TAF
KBAF 031122Z 0312/0412 00000KT P6SM SKC
     FM031800 28006KT P6SM SCT080
     FM032100 27006KT P6SM BKN070
     FM032200 26005KT P6SM SCT070
     FM040300 00000KT P6SM SCT100=



000
FTUS41 KBOX 031122
TAFORH
TAF
KORH 031122Z 0312/0412 28005KT P6SM BKN080
     FM032300 19004KT P6SM SCT070
     FM040500 25006KT P6SM FEW250=



000
FTUS41 KBOX 031122
TAFBAF
TAF
KBAF 031122Z 0312/0412 00000KT P6SM SKC
     FM031800 28006KT P6SM SCT080
     FM032100 27006KT P6SM BKN070
     FM032200 26005KT P6SM SCT070
     FM040300 00000KT P6SM SCT100=



000
FTUS41 KBOX 031122
TAFBDL
TAF
KBDL 031122Z 0312/0418 00000KT P6SM SCT100
     FM032000 25005KT P6SM BKN080
     FM032300 20005KT P6SM SCT100
     FM040700 00000KT P6SM FEW250
     FM041500 21006KT P6SM FEW250=



000
FTUS41 KBOX 031122
TAFPVD
TAF
KPVD 031122Z 0312/0412 22005KT P6SM BKN080
     FM031500 16006KT P6SM SCT080
     FM031800 16010KT P6SM BKN080
     FM040100 18006KT P6SM SCT080=



000
FTUS41 KBOX 031122
TAFBDL
TAF
KBDL 031122Z 0312/0418 00000KT P6SM SCT100
     FM032000 25005KT P6SM BKN080
     FM032300 20005KT P6SM SCT100
     FM040700 00000KT P6SM FEW250
     FM041500 21006KT P6SM FEW250=



000
FTUS41 KBOX 031122
TAFORH
TAF
KORH 031122Z 0312/0412 28005KT P6SM BKN080
     FM032300 19004KT P6SM SCT070
     FM040500 25006KT P6SM FEW250=



000
FTUS41 KBOX 031122
TAFBAF
TAF
KBAF 031122Z 0312/0412 00000KT P6SM SKC
     FM031800 28006KT P6SM SCT080
     FM032100 27006KT P6SM BKN070
     FM032200 26005KT P6SM SCT070
     FM040300 00000KT P6SM SCT100=



000
FTUS41 KBOX 031122
TAFBOS
TAF
KBOS 031122Z 0312/0418 22006KT P6SM BKN100
     FM031400 14004KT P6SM BKN200
     FM031800 11008KT P6SM SCT250
     FM032100 14008KT P6SM BKN080
     FM040000 20007KT P6SM SCT110=



000
FTUS41 KBOX 031122
TAFPVD
TAF
KPVD 031122Z 0312/0412 22005KT P6SM BKN080
     FM031500 16006KT P6SM SCT080
     FM031800 16010KT P6SM BKN080
     FM040100 18006KT P6SM SCT080=



000
FTUS41 KBOX 031122
TAFACK
TAF
KACK 031122Z 0312/0412 17004KT P6SM SCT080
     FM031500 17008KT P6SM BKN080
     FM031800 19009KT P6SM SCT080=



000
FTUS41 KBOX 031122
TAFACK
TAF
KACK 031122Z 0312/0412 17004KT P6SM SCT080
     FM031500 17008KT P6SM BKN080
     FM031800 19009KT P6SM SCT080=



000
FTUS41 KBOX 030810 AAA
TAFPVD
TAF AMD
KPVD 030810Z 0308/0406 20004KT P6SM SCT100
     FM031500 16006KT P6SM FEW080
     FM031800 16010KT P6SM SKC
     FM040100 18006KT P6SM SCT080=



000
FTUS41 KBOX 030810 AAA
TAFPVD
TAF AMD
KPVD 030810Z 0308/0406 20004KT P6SM SCT100
     FM031500 16006KT P6SM FEW080
     FM031800 16010KT P6SM SKC
     FM040100 18006KT P6SM SCT080=



000
FTUS41 KBOX 030810 AAA
TAFPVD
TAF AMD
KPVD 030810Z 0308/0406 20004KT P6SM SCT100
     FM031500 16006KT P6SM FEW080
     FM031800 16010KT P6SM SKC
     FM040100 18006KT P6SM SCT080=



000
FTUS41 KBOX 030810 AAA
TAFBDL
TAF AMD
KBDL 030810Z 0308/0412 16005KT P6SM SCT100
     FM031100 00000KT P6SM FEW200
     FM032000 25005KT P6SM BKN080
     FM032300 20005KT P6SM SCT070
     FM040700 00000KT P6SM FEW250=



000
FTUS41 KBOX 030810 AAA
TAFBDL
TAF AMD
KBDL 030810Z 0308/0412 16005KT P6SM SCT100
     FM031100 00000KT P6SM FEW200
     FM032000 25005KT P6SM BKN080
     FM032300 20005KT P6SM SCT070
     FM040700 00000KT P6SM FEW250=



000
FTUS41 KBOX 030809 AAA
TAFBOS
TAF AMD
KBOS 030809Z 0308/0412 20008KT P6SM SCT100
     FM031400 09004KT P6SM FEW200
     FM031800 10008KT P6SM SCT080
     FM032100 14008KT P6SM BKN080
     FM032300 18008KT P6SM BKN110
     FM040100 20007KT P6SM SCT110=



000
FTUS41 KBOX 030809 AAA
TAFBOS
TAF AMD
KBOS 030809Z 0308/0412 20008KT P6SM SCT100
     FM031400 09004KT P6SM FEW200
     FM031800 10008KT P6SM SCT080
     FM032100 14008KT P6SM BKN080
     FM032300 18008KT P6SM BKN110
     FM040100 20007KT P6SM SCT110=



000
FTUS41 KBOX 030540
TAFACK
TAF
KACK 030540Z 0306/0406 VRB03KT P6SM FEW200
     FM031400 17007KT P6SM SCT080=



000
FTUS41 KBOX 030540
TAFBAF
TAF
KBAF 030540Z 0306/0406 18008KT P6SM SCT100
     FM030800 00000KT P6SM SCT080
     FM031800 28006KT P6SM SCT080
     FM032100 27006KT P6SM BKN070
     FM032200 26005KT P6SM SCT070=



000
FTUS41 KBOX 030540
TAFBAF
TAF
KBAF 030540Z 0306/0406 18008KT P6SM SCT100
     FM030800 00000KT P6SM SCT080
     FM031800 28006KT P6SM SCT080
     FM032100 27006KT P6SM BKN070
     FM032200 26005KT P6SM SCT070=



000
FTUS41 KBOX 030540
TAFACK
TAF
KACK 030540Z 0306/0406 VRB03KT P6SM FEW200
     FM031400 17007KT P6SM SCT080=



000
FTUS41 KBOX 030540
TAFPVD
TAF
KPVD 030540Z 0306/0406 21004KT P6SM SCT080
     FM031500 16006KT P6SM FEW080
     FM031800 16010KT P6SM SKC
     FM040100 18006KT P6SM SCT080=



000
FTUS41 KBOX 030540
TAFACK
TAF
KACK 030540Z 0306/0406 VRB03KT P6SM FEW200
     FM031400 17007KT P6SM SCT080=



000
FTUS41 KBOX 030540
TAFPVD
TAF
KPVD 030540Z 0306/0406 21004KT P6SM SCT080
     FM031500 16006KT P6SM FEW080
     FM031800 16010KT P6SM SKC
     FM040100 18006KT P6SM SCT080=



000
FTUS41 KBOX 030540
TAFBOS
TAF
KBOS 030540Z 0306/0412 20006KT P6SM SCT100
     FM031400 09004KT P6SM FEW200
     FM031800 10008KT P6SM SCT080
     FM032100 14008KT P6SM BKN080
     FM032300 18008KT P6SM BKN110
     FM040100 20007KT P6SM SCT110=



000
FTUS41 KBOX 030540
TAFORH
TAF
KORH 030540Z 0306/0406 24009KT P6SM SCT090
     FM031100 28006KT P6SM FEW080
     FM031800 25004KT P6SM BKN070
     FM032300 19004KT P6SM SCT070=



000
FTUS41 KBOX 030540
TAFBOS
TAF
KBOS 030540Z 0306/0412 20006KT P6SM SCT100
     FM031400 09004KT P6SM FEW200
     FM031800 10008KT P6SM SCT080
     FM032100 14008KT P6SM BKN080
     FM032300 18008KT P6SM BKN110
     FM040100 20007KT P6SM SCT110=



000
FTUS41 KBOX 030540
TAFORH
TAF
KORH 030540Z 0306/0406 24009KT P6SM SCT090
     FM031100 28006KT P6SM FEW080
     FM031800 25004KT P6SM BKN070
     FM032300 19004KT P6SM SCT070=



000
FTUS41 KBOX 030540
TAFBDL
TAF
KBDL 030540Z 0306/0412 18005KT P6SM SCT080
     FM031100 00000KT P6SM FEW200
     FM032000 25005KT P6SM BKN080
     FM032300 20005KT P6SM SCT070
     FM040700 00000KT P6SM FEW250=



000
FTUS41 KBOX 030540
TAFBDL
TAF
KBDL 030540Z 0306/0412 18005KT P6SM SCT080
     FM031100 00000KT P6SM FEW200
     FM032000 25005KT P6SM BKN080
     FM032300 20005KT P6SM SCT070
     FM040700 00000KT P6SM FEW250=



000
FTUS41 KBOX 030540
TAFBAF
TAF
KBAF 030540Z 0306/0406 18008KT P6SM SCT100
     FM030800 00000KT P6SM SCT080
     FM031800 28006KT P6SM SCT080
     FM032100 27006KT P6SM BKN070
     FM032200 26005KT P6SM SCT070=



000
FTUS41 KBOX 030540
TAFBAF
TAF
KBAF 030540Z 0306/0406 18008KT P6SM SCT100
     FM030800 00000KT P6SM SCT080
     FM031800 28006KT P6SM SCT080
     FM032100 27006KT P6SM BKN070
     FM032200 26005KT P6SM SCT070=



000
FTUS41 KBOX 030540
TAFBDL
TAF
KBDL 030540Z 0306/0412 18005KT P6SM SCT080
     FM031100 00000KT P6SM FEW200
     FM032000 25005KT P6SM BKN080
     FM032300 20005KT P6SM SCT070
     FM040700 00000KT P6SM FEW250=



000
FTUS41 KBOX 030540
TAFBOS
TAF
KBOS 030540Z 0306/0412 20006KT P6SM SCT100
     FM031400 09004KT P6SM FEW200
     FM031800 10008KT P6SM SCT080
     FM032100 14008KT P6SM BKN080
     FM032300 18008KT P6SM BKN110
     FM040100 20007KT P6SM SCT110=



000
FTUS41 KBOX 030540
TAFPVD
TAF
KPVD 030540Z 0306/0406 21004KT P6SM SCT080
     FM031500 16006KT P6SM FEW080
     FM031800 16010KT P6SM SKC
     FM040100 18006KT P6SM SCT080=



000
FTUS41 KBOX 030540
TAFACK
TAF
KACK 030540Z 0306/0406 VRB03KT P6SM FEW200
     FM031400 17007KT P6SM SCT080=



000
FTUS41 KBOX 030540
TAFBDL
TAF
KBDL 030540Z 0306/0412 18005KT P6SM SCT080
     FM031100 00000KT P6SM FEW200
     FM032000 25005KT P6SM BKN080
     FM032300 20005KT P6SM SCT070
     FM040700 00000KT P6SM FEW250=



000
FTUS41 KBOX 030540
TAFORH
TAF
KORH 030540Z 0306/0406 24009KT P6SM SCT090
     FM031100 28006KT P6SM FEW080
     FM031800 25004KT P6SM BKN070
     FM032300 19004KT P6SM SCT070=



000
FTUS41 KBOX 030540
TAFORH
TAF
KORH 030540Z 0306/0406 24009KT P6SM SCT090
     FM031100 28006KT P6SM FEW080
     FM031800 25004KT P6SM BKN070
     FM032300 19004KT P6SM SCT070=



000
FTUS41 KBOX 030540
TAFBOS
TAF
KBOS 030540Z 0306/0412 20006KT P6SM SCT100
     FM031400 09004KT P6SM FEW200
     FM031800 10008KT P6SM SCT080
     FM032100 14008KT P6SM BKN080
     FM032300 18008KT P6SM BKN110
     FM040100 20007KT P6SM SCT110=



000
FTUS41 KBOX 030540
TAFPVD
TAF
KPVD 030540Z 0306/0406 21004KT P6SM SCT080
     FM031500 16006KT P6SM FEW080
     FM031800 16010KT P6SM SKC
     FM040100 18006KT P6SM SCT080=



000
FTUS41 KBOX 030304 AAA
TAFPVD
TAF AMD
KPVD 030304Z 0303/0324 19005KT P6SM FEW250
     FM030600 00000KT P6SM BKN250
     FM031800 17006KT P6SM BKN070=



000
FTUS41 KBOX 030304 AAA
TAFPVD
TAF AMD
KPVD 030304Z 0303/0324 19005KT P6SM FEW250
     FM030600 00000KT P6SM BKN250
     FM031800 17006KT P6SM BKN070=



000
FTUS41 KBOX 030303 AAA
TAFBOS
TAF AMD
KBOS 030303Z 0303/0406 19005KT P6SM FEW100
     FM030400 19004KT P6SM SCT100
     FM031800 11006KT P6SM BKN080
     FM032100 15007KT P6SM BKN070
     FM040200 20006KT P6SM SCT090=



000
FTUS41 KBOX 030303 AAA
TAFBOS
TAF AMD
KBOS 030303Z 0303/0406 19005KT P6SM FEW100
     FM030400 19004KT P6SM SCT100
     FM031800 11006KT P6SM BKN080
     FM032100 15007KT P6SM BKN070
     FM040200 20006KT P6SM SCT090=



000
FTUS41 KBOX 030303 AAA
TAFBOS
TAF AMD
KBOS 030303Z 0303/0406 19005KT P6SM FEW100
     FM030400 19004KT P6SM SCT100
     FM031800 11006KT P6SM BKN080
     FM032100 15007KT P6SM BKN070
     FM040200 20006KT P6SM SCT090=



000
FTUS41 KBOX 030303 AAA
TAFBOS
TAF AMD
KBOS 030303Z 0303/0406 19005KT P6SM FEW100
     FM030400 19004KT P6SM SCT100
     FM031800 11006KT P6SM BKN080
     FM032100 15007KT P6SM BKN070
     FM040200 20006KT P6SM SCT090=



000
FTUS41 KBOX 030303 AAA
TAFBDL
TAF AMD
KBDL 030303Z 0303/0406 19008KT P6SM FEW100
     FM030600 00000KT P6SM BKN070
     FM031000 00000KT P6SM FEW200
     FM031400 VRB03KT P6SM BKN080
     FM040200 21004KT P6SM SCT250=



000
FTUS41 KBOX 030303 AAA
TAFBDL
TAF AMD
KBDL 030303Z 0303/0406 19008KT P6SM FEW100
     FM030600 00000KT P6SM BKN070
     FM031000 00000KT P6SM FEW200
     FM031400 VRB03KT P6SM BKN080
     FM040200 21004KT P6SM SCT250=



000
FTUS41 KBOX 022328
TAFBAF
TAF
KBAF 022328Z 0300/0324 23005KT P6SM FEW100
     FM030100 00000KT P6SM BKN250
     FM031800 29006KT P6SM BKN070
     FM032300 23004KT P6SM BKN070=



000
FTUS41 KBOX 022328
TAFBDL
TAF
KBDL 022328Z 0300/0406 18012KT P6SM FEW070
     FM030600 00000KT P6SM BKN070
     FM031000 00000KT P6SM FEW200
     FM031400 VRB03KT P6SM BKN080
     FM040200 21004KT P6SM SCT250=



000
FTUS41 KBOX 022328
TAFBOS
TAF
KBOS 022328Z 0300/0406 07010KT P6SM FEW070
     FM030200 13006KT P6SM FEW250
     FM030400 19004KT P6SM BKN250
     FM031800 11006KT P6SM BKN080
     FM032100 15007KT P6SM BKN070
     FM040200 20006KT P6SM SCT090=



000
FTUS41 KBOX 022328
TAFPVD
TAF
KPVD 022328Z 0300/0324 17005KT P6SM FEW050
     FM030500 00000KT P6SM BKN250
     FM031800 17006KT P6SM BKN070=



000
FTUS41 KBOX 022328
TAFACK
TAF
KACK 022328Z 0300/0324 05007KT P6SM FEW250
     FM030600 00000KT 5SM BR FEW200
     FM031000 00000KT P6SM BKN070
     FM031900 19005KT P6SM SCT070=



000
FTUS41 KBOX 022328
TAFORH
TAF
KORH 022328Z 0300/0324 15004KT P6SM SCT250
     FM030400 23004KT P6SM BKN250
     FM031700 00000KT P6SM BKN070=



000
FTUS41 KBOX 022328
TAFBOS
TAF
KBOS 022328Z 0300/0406 07010KT P6SM FEW070
     FM030200 13006KT P6SM FEW250
     FM030400 19004KT P6SM BKN250
     FM031800 11006KT P6SM BKN080
     FM032100 15007KT P6SM BKN070
     FM040200 20006KT P6SM SCT090=



000
FTUS41 KBOX 022328
TAFACK
TAF
KACK 022328Z 0300/0324 05007KT P6SM FEW250
     FM030600 00000KT 5SM BR FEW200
     FM031000 00000KT P6SM BKN070
     FM031900 19005KT P6SM SCT070=



000
FTUS41 KBOX 022328
TAFBDL
TAF
KBDL 022328Z 0300/0406 18012KT P6SM FEW070
     FM030600 00000KT P6SM BKN070
     FM031000 00000KT P6SM FEW200
     FM031400 VRB03KT P6SM BKN080
     FM040200 21004KT P6SM SCT250=



000
FTUS41 KBOX 022328
TAFBAF
TAF
KBAF 022328Z 0300/0324 23005KT P6SM FEW100
     FM030100 00000KT P6SM BKN250
     FM031800 29006KT P6SM BKN070
     FM032300 23004KT P6SM BKN070=



000
FTUS41 KBOX 022328
TAFBAF
TAF
KBAF 022328Z 0300/0324 23005KT P6SM FEW100
     FM030100 00000KT P6SM BKN250
     FM031800 29006KT P6SM BKN070
     FM032300 23004KT P6SM BKN070=



000
FTUS41 KBOX 022328
TAFBDL
TAF
KBDL 022328Z 0300/0406 18012KT P6SM FEW070
     FM030600 00000KT P6SM BKN070
     FM031000 00000KT P6SM FEW200
     FM031400 VRB03KT P6SM BKN080
     FM040200 21004KT P6SM SCT250=



000
FTUS41 KBOX 022328
TAFORH
TAF
KORH 022328Z 0300/0324 15004KT P6SM SCT250
     FM030400 23004KT P6SM BKN250
     FM031700 00000KT P6SM BKN070=



000
FTUS41 KBOX 022328
TAFBDL
TAF
KBDL 022328Z 0300/0406 18012KT P6SM FEW070
     FM030600 00000KT P6SM BKN070
     FM031000 00000KT P6SM FEW200
     FM031400 VRB03KT P6SM BKN080
     FM040200 21004KT P6SM SCT250=



000
FTUS41 KBOX 022328
TAFBAF
TAF
KBAF 022328Z 0300/0324 23005KT P6SM FEW100
     FM030100 00000KT P6SM BKN250
     FM031800 29006KT P6SM BKN070
     FM032300 23004KT P6SM BKN070=



000
FTUS41 KBOX 022328
TAFACK
TAF
KACK 022328Z 0300/0324 05007KT P6SM FEW250
     FM030600 00000KT 5SM BR FEW200
     FM031000 00000KT P6SM BKN070
     FM031900 19005KT P6SM SCT070=



000
FTUS41 KBOX 022328
TAFPVD
TAF
KPVD 022328Z 0300/0324 17005KT P6SM FEW050
     FM030500 00000KT P6SM BKN250
     FM031800 17006KT P6SM BKN070=



000
FTUS41 KBOX 022328
TAFPVD
TAF
KPVD 022328Z 0300/0324 17005KT P6SM FEW050
     FM030500 00000KT P6SM BKN250
     FM031800 17006KT P6SM BKN070=



000
FTUS41 KBOX 022328
TAFBOS
TAF
KBOS 022328Z 0300/0406 07010KT P6SM FEW070
     FM030200 13006KT P6SM FEW250
     FM030400 19004KT P6SM BKN250
     FM031800 11006KT P6SM BKN080
     FM032100 15007KT P6SM BKN070
     FM040200 20006KT P6SM SCT090=



000
FTUS41 KBOX 022328
TAFORH
TAF
KORH 022328Z 0300/0324 15004KT P6SM SCT250
     FM030400 23004KT P6SM BKN250
     FM031700 00000KT P6SM BKN070=



000
FTUS41 KBOX 022328
TAFBOS
TAF
KBOS 022328Z 0300/0406 07010KT P6SM FEW070
     FM030200 13006KT P6SM FEW250
     FM030400 19004KT P6SM BKN250
     FM031800 11006KT P6SM BKN080
     FM032100 15007KT P6SM BKN070
     FM040200 20006KT P6SM SCT090=



000
FTUS41 KBOX 022328
TAFPVD
TAF
KPVD 022328Z 0300/0324 17005KT P6SM FEW050
     FM030500 00000KT P6SM BKN250
     FM031800 17006KT P6SM BKN070=



000
FTUS41 KBOX 022328
TAFORH
TAF
KORH 022328Z 0300/0324 15004KT P6SM SCT250
     FM030400 23004KT P6SM BKN250
     FM031700 00000KT P6SM BKN070=



000
FTUS41 KBOX 022328
TAFACK
TAF
KACK 022328Z 0300/0324 05007KT P6SM FEW250
     FM030600 00000KT 5SM BR FEW200
     FM031000 00000KT P6SM BKN070
     FM031900 19005KT P6SM SCT070=



000
FTUS41 KBOX 021949 AAA
TAFPVD
TAF AMD
KPVD 021949Z 0220/0318 16012KT P6SM FEW045
     FM030300 21004KT P6SM BKN100
     FM031500 19006KT P6SM SCT250=



000
FTUS41 KBOX 021949 AAA
TAFPVD
TAF AMD
KPVD 021949Z 0220/0318 16012KT P6SM FEW045
     FM030300 21004KT P6SM BKN100
     FM031500 19006KT P6SM SCT250=



000
FTUS41 KBOX 021949 AAA
TAFPVD
TAF AMD
KPVD 021949Z 0220/0318 16012KT P6SM FEW045
     FM030300 21004KT P6SM BKN100
     FM031500 19006KT P6SM SCT250=



000
FTUS41 KBOX 021949 AAA
TAFPVD
TAF AMD
KPVD 021949Z 0220/0318 16012KT P6SM FEW045
     FM030300 21004KT P6SM BKN100
     FM031500 19006KT P6SM SCT250=



000
FTUS41 KBOX 021948 AAA
TAFBDL
TAF AMD
KBDL 021948Z 0220/0324 06009KT P6SM FEW070
     FM022130 13005KT P6SM SCT200
     FM022300 17005KT P6SM SCT200
     FM030600 00000KT P6SM BKN070
     FM031400 VRB03KT P6SM BKN080=



000
FTUS41 KBOX 021948 AAA
TAFBDL
TAF AMD
KBDL 021948Z 0220/0324 06009KT P6SM FEW070
     FM022130 13005KT P6SM SCT200
     FM022300 17005KT P6SM SCT200
     FM030600 00000KT P6SM BKN070
     FM031400 VRB03KT P6SM BKN080=



000
FTUS41 KBOX 021947 AAA
TAFBOS
TAF AMD
KBOS 021947Z 0220/0324 12007KT P6SM FEW004 SCT060
     FM030000 15007KT P6SM FEW250
     FM030300 19005KT P6SM BKN080
     FM030900 21004KT P6SM BKN070
     FM031500 16005KT P6SM SCT070
     FM031800 12006KT P6SM BKN080
     FM032100 15007KT P6SM BKN070=



000
FTUS41 KBOX 021947 AAA
TAFBOS
TAF AMD
KBOS 021947Z 0220/0324 12007KT P6SM FEW004 SCT060
     FM030000 15007KT P6SM FEW250
     FM030300 19005KT P6SM BKN080
     FM030900 21004KT P6SM BKN070
     FM031500 16005KT P6SM SCT070
     FM031800 12006KT P6SM BKN080
     FM032100 15007KT P6SM BKN070=



000
FTUS41 KBOX 021729
TAFORH
TAF
KORH 021729Z 0218/0318 09007KT P6SM SKC
     FM030200 19004KT P6SM BKN070
     FM030500 25005KT P6SM BKN070
     FM031200 28004KT P6SM SCT080
     FM031700 00000KT P6SM BKN070=



000
FTUS41 KBOX 021729
TAFBDL
TAF
KBDL 021729Z 0218/0324 02007KT P6SM SCT070
     FM022100 13005KT P6SM SCT200
     FM022300 17005KT P6SM SCT200
     FM030600 00000KT P6SM BKN070
     FM031400 VRB03KT P6SM BKN080=



000
FTUS41 KBOX 021729
TAFPVD
TAF
KPVD 021729Z 0218/0318 20008KT P6SM FEW045
     FM030300 21004KT P6SM BKN100
     FM031500 19006KT P6SM SCT250=



000
FTUS41 KBOX 021729
TAFACK
TAF
KACK 021729Z 0218/0318 05012KT P6SM SCT020
     FM030500 VRB03KT P6SM FEW200
     FM030600 00000KT 5SM BR FEW200
     FM030900 VRB03KT P6SM SCT070=



000
FTUS41 KBOX 021729
TAFBAF
TAF
KBAF 021729Z 0218/0318 35006KT P6SM SCT070
     FM022100 VRB03KT P6SM SCT200
     FM030000 00000KT P6SM BKN060
     FM031400 VRB03KT P6SM BKN080=



000
FTUS41 KBOX 021729
TAFORH
TAF
KORH 021729Z 0218/0318 09007KT P6SM SKC
     FM030200 19004KT P6SM BKN070
     FM030500 25005KT P6SM BKN070
     FM031200 28004KT P6SM SCT080
     FM031700 00000KT P6SM BKN070=



000
FTUS41 KBOX 021729
TAFBOS
TAF
KBOS 021729Z 0218/0324 12011KT P6SM FEW005
     FM030300 17005KT P6SM BKN080
     FM030900 23004KT P6SM BKN070
     FM031600 15005KT P6SM SCT070
     FM031800 11006KT P6SM BKN080
     FM032100 15007KT P6SM BKN070=



000
FTUS41 KBOX 021729
TAFPVD
TAF
KPVD 021729Z 0218/0318 20008KT P6SM FEW045
     FM030300 21004KT P6SM BKN100
     FM031500 19006KT P6SM SCT250=



000
FTUS41 KBOX 021729
TAFBAF
TAF
KBAF 021729Z 0218/0318 35006KT P6SM SCT070
     FM022100 VRB03KT P6SM SCT200
     FM030000 00000KT P6SM BKN060
     FM031400 VRB03KT P6SM BKN080=



000
FTUS41 KBOX 021729
TAFACK
TAF
KACK 021729Z 0218/0318 05012KT P6SM SCT020
     FM030500 VRB03KT P6SM FEW200
     FM030600 00000KT 5SM BR FEW200
     FM030900 VRB03KT P6SM SCT070=



000
FTUS41 KBOX 021729
TAFBOS
TAF
KBOS 021729Z 0218/0324 12011KT P6SM FEW005
     FM030300 17005KT P6SM BKN080
     FM030900 23004KT P6SM BKN070
     FM031600 15005KT P6SM SCT070
     FM031800 11006KT P6SM BKN080
     FM032100 15007KT P6SM BKN070=



000
FTUS41 KBOX 021729
TAFBDL
TAF
KBDL 021729Z 0218/0324 02007KT P6SM SCT070
     FM022100 13005KT P6SM SCT200
     FM022300 17005KT P6SM SCT200
     FM030600 00000KT P6SM BKN070
     FM031400 VRB03KT P6SM BKN080=



000
FTUS41 KBOX 021729
TAFORH
TAF
KORH 021729Z 0218/0318 09007KT P6SM SKC
     FM030200 19004KT P6SM BKN070
     FM030500 25005KT P6SM BKN070
     FM031200 28004KT P6SM SCT080
     FM031700 00000KT P6SM BKN070=



000
FTUS41 KBOX 021729
TAFBAF
TAF
KBAF 021729Z 0218/0318 35006KT P6SM SCT070
     FM022100 VRB03KT P6SM SCT200
     FM030000 00000KT P6SM BKN060
     FM031400 VRB03KT P6SM BKN080=



000
FTUS41 KBOX 021729
TAFBDL
TAF
KBDL 021729Z 0218/0324 02007KT P6SM SCT070
     FM022100 13005KT P6SM SCT200
     FM022300 17005KT P6SM SCT200
     FM030600 00000KT P6SM BKN070
     FM031400 VRB03KT P6SM BKN080=



000
FTUS41 KBOX 021729
TAFBDL
TAF
KBDL 021729Z 0218/0324 02007KT P6SM SCT070
     FM022100 13005KT P6SM SCT200
     FM022300 17005KT P6SM SCT200
     FM030600 00000KT P6SM BKN070
     FM031400 VRB03KT P6SM BKN080=



000
FTUS41 KBOX 021729
TAFACK
TAF
KACK 021729Z 0218/0318 05012KT P6SM SCT020
     FM030500 VRB03KT P6SM FEW200
     FM030600 00000KT 5SM BR FEW200
     FM030900 VRB03KT P6SM SCT070=



000
FTUS41 KBOX 021729
TAFPVD
TAF
KPVD 021729Z 0218/0318 20008KT P6SM FEW045
     FM030300 21004KT P6SM BKN100
     FM031500 19006KT P6SM SCT250=



000
FTUS41 KBOX 021729
TAFBAF
TAF
KBAF 021729Z 0218/0318 35006KT P6SM SCT070
     FM022100 VRB03KT P6SM SCT200
     FM030000 00000KT P6SM BKN060
     FM031400 VRB03KT P6SM BKN080=



000
FTUS41 KBOX 021729
TAFORH
TAF
KORH 021729Z 0218/0318 09007KT P6SM SKC
     FM030200 19004KT P6SM BKN070
     FM030500 25005KT P6SM BKN070
     FM031200 28004KT P6SM SCT080
     FM031700 00000KT P6SM BKN070=



000
FTUS41 KBOX 021729
TAFBOS
TAF
KBOS 021729Z 0218/0324 12011KT P6SM FEW005
     FM030300 17005KT P6SM BKN080
     FM030900 23004KT P6SM BKN070
     FM031600 15005KT P6SM SCT070
     FM031800 11006KT P6SM BKN080
     FM032100 15007KT P6SM BKN070=



000
FTUS41 KBOX 021729
TAFBOS
TAF
KBOS 021729Z 0218/0324 12011KT P6SM FEW005
     FM030300 17005KT P6SM BKN080
     FM030900 23004KT P6SM BKN070
     FM031600 15005KT P6SM SCT070
     FM031800 11006KT P6SM BKN080
     FM032100 15007KT P6SM BKN070=



000
FTUS41 KBOX 021729
TAFACK
TAF
KACK 021729Z 0218/0318 05012KT P6SM SCT020
     FM030500 VRB03KT P6SM FEW200
     FM030600 00000KT 5SM BR FEW200
     FM030900 VRB03KT P6SM SCT070=



000
FTUS41 KBOX 021729
TAFPVD
TAF
KPVD 021729Z 0218/0318 20008KT P6SM FEW045
     FM030300 21004KT P6SM BKN100
     FM031500 19006KT P6SM SCT250=



000
FTUS41 KBOX 021459 AAB
TAFBOS
TAF AMD
KBOS 021459Z 0215/0318 08004KT P6SM SCT015
     FM021700 10008KT P6SM SCT050
     FM022300 14008KT P6SM FEW050
     FM030200 19007KT P6SM FEW200
     FM031600 14006KT P6SM SCT250=



000
FTUS41 KBOX 021459 AAB
TAFBOS
TAF AMD
KBOS 021459Z 0215/0318 08004KT P6SM SCT015
     FM021700 10008KT P6SM SCT050
     FM022300 14008KT P6SM FEW050
     FM030200 19007KT P6SM FEW200
     FM031600 14006KT P6SM SCT250=



000
FTUS41 KBOX 021459 AAB
TAFBOS
TAF AMD
KBOS 021459Z 0215/0318 08004KT P6SM SCT015
     FM021700 10008KT P6SM SCT050
     FM022300 14008KT P6SM FEW050
     FM030200 19007KT P6SM FEW200
     FM031600 14006KT P6SM SCT250=



000
FTUS41 KBOX 021432 AAA
TAFPVD
TAF AMD
KPVD 021432Z 0215/0312 03004KT P6SM FEW250
     FM021700 12007KT P6SM FEW050
     FM022000 16009KT P6SM FEW050
     FM030000 18007KT P6SM FEW200
     FM030400 VRB03KT P6SM FEW200=



000
FTUS41 KBOX 021430 AAA
TAFBDL
TAF AMD
KBDL 021430Z 0215/0318 VRB03KT P6SM FEW060
     FM022100 17006KT P6SM BKN050
     FM030100 VRB03KT P6SM SCT070=



000
FTUS41 KBOX 021430 AAA
TAFBDL
TAF AMD
KBDL 021430Z 0215/0318 VRB03KT P6SM FEW060
     FM022100 17006KT P6SM BKN050
     FM030100 VRB03KT P6SM SCT070=



000
FTUS41 KBOX 021430 AAA
TAFBDL
TAF AMD
KBDL 021430Z 0215/0318 VRB03KT P6SM FEW060
     FM022100 17006KT P6SM BKN050
     FM030100 VRB03KT P6SM SCT070=



000
FTUS41 KBOX 021429 AAA
TAFBOS
TAF AMD
KBOS 021429Z 0214/0318 06004KT P6SM OVC006
     FM021500 07004KT P6SM BKN007
     FM021600 08004KT P6SM SCT008
     FM021700 10008KT P6SM SCT050
     FM022300 14008KT P6SM FEW050
     FM030200 19007KT P6SM FEW200
     FM031600 14006KT P6SM SCT250=



000
FTUS41 KBOX 021429 AAA
TAFBOS
TAF AMD
KBOS 021429Z 0214/0318 06004KT P6SM OVC006
     FM021500 07004KT P6SM BKN007
     FM021600 08004KT P6SM SCT008
     FM021700 10008KT P6SM SCT050
     FM022300 14008KT P6SM FEW050
     FM030200 19007KT P6SM FEW200
     FM031600 14006KT P6SM SCT250=



000
FTUS41 KBOX 021429 AAA
TAFBOS
TAF AMD
KBOS 021429Z 0214/0318 06004KT P6SM OVC006
     FM021500 07004KT P6SM BKN007
     FM021600 08004KT P6SM SCT008
     FM021700 10008KT P6SM SCT050
     FM022300 14008KT P6SM FEW050
     FM030200 19007KT P6SM FEW200
     FM031600 14006KT P6SM SCT250=



000
FTUS41 KBOX 021429 AAA
TAFBOS
TAF AMD
KBOS 021429Z 0214/0318 06004KT P6SM OVC006
     FM021500 07004KT P6SM BKN007
     FM021600 08004KT P6SM SCT008
     FM021700 10008KT P6SM SCT050
     FM022300 14008KT P6SM FEW050
     FM030200 19007KT P6SM FEW200
     FM031600 14006KT P6SM SCT250=



000
FTUS41 KBOX 021123
TAFACK
TAF
KACK 021123Z 0212/0312 04010KT P6SM OVC010
     FM021500 05013KT P6SM BKN150
     FM022200 08004KT P6SM FEW150
     FM030400 00000KT P6SM FEW200=



000
FTUS41 KBOX 021123
TAFORH
TAF
KORH 021123Z 0212/0312 00000KT P6SM SCT200
     FM021500 VRB03KT P6SM FEW050
     FM030000 18004KT P6SM SCT250
     FM030500 25007KT P6SM SCT060=



000
FTUS41 KBOX 021123
TAFBOS
TAF
KBOS 021123Z 0212/0318 12004KT P6SM OVC006
     FM021400 09004KT P6SM BKN120
     FM021700 10008KT P6SM SCT050
     FM022300 14008KT P6SM FEW050
     FM030200 19007KT P6SM FEW200
     FM031600 14006KT P6SM SCT250=



000
FTUS41 KBOX 021123
TAFBDL
TAF
KBDL 021123Z 0212/0318 00000KT P6SM SCT200
     FM021500 00000KT P6SM FEW050
     FM022100 17006KT P6SM BKN050
     FM030100 VRB03KT P6SM SCT070=



000
FTUS41 KBOX 021123
TAFPVD
TAF
KPVD 021123Z 0212/0312 03004KT P6SM OVC005
     FM021300 04004KT P6SM BKN140
     FM021700 10007KT P6SM FEW050
     FM022000 14009KT P6SM FEW050
     FM030000 18007KT P6SM FEW200
     FM030400 VRB03KT P6SM FEW200=



000
FTUS41 KBOX 021123
TAFORH
TAF
KORH 021123Z 0212/0312 00000KT P6SM SCT200
     FM021500 VRB03KT P6SM FEW050
     FM030000 18004KT P6SM SCT250
     FM030500 25007KT P6SM SCT060=



000
FTUS41 KBOX 021123
TAFBAF
TAF
KBAF 021123Z 0212/0312 00000KT P6SM SCT200
     FM021500 00000KT P6SM FEW050
     FM022100 16004KT P6SM BKN050
     FM030100 00000KT P6SM SCT070
     FM030900 00000KT 5SM BR SCT070=



000
FTUS41 KBOX 021123
TAFBDL
TAF
KBDL 021123Z 0212/0318 00000KT P6SM SCT200
     FM021500 00000KT P6SM FEW050
     FM022100 17006KT P6SM BKN050
     FM030100 VRB03KT P6SM SCT070=



000
FTUS41 KBOX 021123
TAFBOS
TAF
KBOS 021123Z 0212/0318 12004KT P6SM OVC006
     FM021400 09004KT P6SM BKN120
     FM021700 10008KT P6SM SCT050
     FM022300 14008KT P6SM FEW050
     FM030200 19007KT P6SM FEW200
     FM031600 14006KT P6SM SCT250=



000
FTUS41 KBOX 021123
TAFACK
TAF
KACK 021123Z 0212/0312 04010KT P6SM OVC010
     FM021500 05013KT P6SM BKN150
     FM022200 08004KT P6SM FEW150
     FM030400 00000KT P6SM FEW200=



000
FTUS41 KBOX 021123
TAFPVD
TAF
KPVD 021123Z 0212/0312 03004KT P6SM OVC005
     FM021300 04004KT P6SM BKN140
     FM021700 10007KT P6SM FEW050
     FM022000 14009KT P6SM FEW050
     FM030000 18007KT P6SM FEW200
     FM030400 VRB03KT P6SM FEW200=



000
FTUS41 KBOX 021123
TAFBAF
TAF
KBAF 021123Z 0212/0312 00000KT P6SM SCT200
     FM021500 00000KT P6SM FEW050
     FM022100 16004KT P6SM BKN050
     FM030100 00000KT P6SM SCT070
     FM030900 00000KT 5SM BR SCT070=



000
FTUS41 KBOX 021014 AAB
TAFPVD
TAF AMD
KPVD 021014Z 0210/0306 01004KT 3SM BR OVC003
     FM021200 03004KT P6SM SCT130
     FM021700 10007KT P6SM FEW150
     FM022000 14009KT P6SM FEW150
     FM030000 18005KT P6SM FEW200=



000
FTUS41 KBOX 021014 AAA
TAFBDL
TAF AMD
KBDL 021014Z 0210/0312 00000KT P6SM BKN190
     FM021500 06004KT P6SM SCT060
     FM022100 17006KT P6SM BKN060
     FM030100 18007KT P6SM SCT060
     FM030700 VRB03KT P6SM SCT070=



000
FTUS41 KBOX 021014 AAA
TAFBDL
TAF AMD
KBDL 021014Z 0210/0312 00000KT P6SM BKN190
     FM021500 06004KT P6SM SCT060
     FM022100 17006KT P6SM BKN060
     FM030100 18007KT P6SM SCT060
     FM030700 VRB03KT P6SM SCT070=



000
FTUS41 KBOX 021014 AAB
TAFPVD
TAF AMD
KPVD 021014Z 0210/0306 01004KT 3SM BR OVC003
     FM021200 03004KT P6SM SCT130
     FM021700 10007KT P6SM FEW150
     FM022000 14009KT P6SM FEW150
     FM030000 18005KT P6SM FEW200=



000
FTUS41 KBOX 021013 AAB
TAFBOS
TAF AMD
KBOS 021013Z 0210/0312 07005KT P6SM OVC006
     FM021200 09005KT P6SM SCT006
     FM021500 11006KT P6SM BKN150
     FM030000 15007KT P6SM FEW200
     FM030300 19007KT P6SM FEW200=



000
FTUS41 KBOX 021013 AAB
TAFBOS
TAF AMD
KBOS 021013Z 0210/0312 07005KT P6SM OVC006
     FM021200 09005KT P6SM SCT006
     FM021500 11006KT P6SM BKN150
     FM030000 15007KT P6SM FEW200
     FM030300 19007KT P6SM FEW200=



000
FTUS41 KBOX 020810 AAA
TAFACK
TAF AMD
KACK 020810Z 0208/0306 05007KT P6SM OVC008
     FM021000 03009KT P6SM BKN010
     FM021400 04013KT P6SM BKN120
     FM030000 08004KT P6SM FEW150
     FM030400 00000KT P6SM FEW200=



000
FTUS41 KBOX 020810 AAA
TAFACK
TAF AMD
KACK 020810Z 0208/0306 05007KT P6SM OVC008
     FM021000 03009KT P6SM BKN010
     FM021400 04013KT P6SM BKN120
     FM030000 08004KT P6SM FEW150
     FM030400 00000KT P6SM FEW200=



000
FTUS41 KBOX 020737 AAA
TAFPVD
TAF AMD
KPVD 020737Z 0208/0306 VRB03KT P6SM BKN008
     FM021100 03004KT P6SM SCT130
     FM021700 10007KT P6SM FEW150
     FM022000 14009KT P6SM FEW150
     FM030000 18005KT P6SM FEW200=



000
FTUS41 KBOX 020737 AAA
TAFPVD
TAF AMD
KPVD 020737Z 0208/0306 VRB03KT P6SM BKN008
     FM021100 03004KT P6SM SCT130
     FM021700 10007KT P6SM FEW150
     FM022000 14009KT P6SM FEW150
     FM030000 18005KT P6SM FEW200=



000
FTUS41 KBOX 020737 AAA
TAFPVD
TAF AMD
KPVD 020737Z 0208/0306 VRB03KT P6SM BKN008
     FM021100 03004KT P6SM SCT130
     FM021700 10007KT P6SM FEW150
     FM022000 14009KT P6SM FEW150
     FM030000 18005KT P6SM FEW200=



000
FTUS41 KBOX 020737 AAA
TAFPVD
TAF AMD
KPVD 020737Z 0208/0306 VRB03KT P6SM BKN008
     FM021100 03004KT P6SM SCT130
     FM021700 10007KT P6SM FEW150
     FM022000 14009KT P6SM FEW150
     FM030000 18005KT P6SM FEW200=



000
FTUS41 KBOX 020733 AAA
TAFBOS
TAF AMD
KBOS 020733Z 0208/0312 VRB03KT P6SM BKN008
     FM021200 09005KT P6SM SCT008
     FM021500 11006KT P6SM BKN150
     FM030000 15007KT P6SM FEW200
     FM030300 19007KT P6SM FEW200=



000
FTUS41 KBOX 020733 AAA
TAFBOS
TAF AMD
KBOS 020733Z 0208/0312 VRB03KT P6SM BKN008
     FM021200 09005KT P6SM SCT008
     FM021500 11006KT P6SM BKN150
     FM030000 15007KT P6SM FEW200
     FM030300 19007KT P6SM FEW200=



000
FTUS41 KBOX 020539
TAFORH
TAF
KORH 020539Z 0206/0306 VRB03KT P6SM SCT080
     FM021700 08004KT P6SM SCT140
     FM022000 16005KT P6SM SCT100
     FM030200 22005KT P6SM SCT060=



000
FTUS41 KBOX 020539
TAFPVD
TAF
KPVD 020539Z 0206/0306 VRB03KT P6SM SCT120
     FM021200 03004KT P6SM SCT130
     FM021700 10007KT P6SM FEW150
     FM022000 14009KT P6SM FEW150
     FM030000 18005KT P6SM FEW200=



000
FTUS41 KBOX 020539
TAFBOS
TAF
KBOS 020539Z 0206/0312 VRB03KT P6SM SCT010
     FM021500 11006KT P6SM BKN150
     FM030000 15007KT P6SM FEW200
     FM030300 19007KT P6SM FEW200=



000
FTUS41 KBOX 020539
TAFBDL
TAF
KBDL 020539Z 0206/0312 VRB03KT P6SM SCT070
     FM021000 00000KT P6SM SCT070
     FM022100 17006KT P6SM BKN060
     FM030100 18007KT P6SM SCT060
     FM030700 VRB03KT P6SM SCT070=



000
FTUS41 KBOX 020539
TAFPVD
TAF
KPVD 020539Z 0206/0306 VRB03KT P6SM SCT120
     FM021200 03004KT P6SM SCT130
     FM021700 10007KT P6SM FEW150
     FM022000 14009KT P6SM FEW150
     FM030000 18005KT P6SM FEW200=



000
FTUS41 KBOX 020539
TAFACK
TAF
KACK 020539Z 0206/0306 05007KT P6SM OVC010
     FM021000 03009KT P6SM BKN010
     FM021400 04013KT P6SM BKN120
     FM030000 08004KT P6SM FEW150
     FM030400 00000KT P6SM FEW200=



000
FTUS41 KBOX 020539
TAFORH
TAF
KORH 020539Z 0206/0306 VRB03KT P6SM SCT080
     FM021700 08004KT P6SM SCT140
     FM022000 16005KT P6SM SCT100
     FM030200 22005KT P6SM SCT060=



000
FTUS41 KBOX 020539
TAFBAF
TAF
KBAF 020539Z 0206/0306 VRB03KT P6SM SCT090
     FM022100 16004KT P6SM BKN060
     FM030100 19004KT P6SM SCT060=



000
FTUS41 KBOX 020539
TAFBOS
TAF
KBOS 020539Z 0206/0312 VRB03KT P6SM SCT010
     FM021500 11006KT P6SM BKN150
     FM030000 15007KT P6SM FEW200
     FM030300 19007KT P6SM FEW200=



000
FTUS41 KBOX 020539
TAFBDL
TAF
KBDL 020539Z 0206/0312 VRB03KT P6SM SCT070
     FM021000 00000KT P6SM SCT070
     FM022100 17006KT P6SM BKN060
     FM030100 18007KT P6SM SCT060
     FM030700 VRB03KT P6SM SCT070=



000
FTUS41 KBOX 020539
TAFACK
TAF
KACK 020539Z 0206/0306 05007KT P6SM OVC010
     FM021000 03009KT P6SM BKN010
     FM021400 04013KT P6SM BKN120
     FM030000 08004KT P6SM FEW150
     FM030400 00000KT P6SM FEW200=



000
FTUS41 KBOX 020539
TAFBAF
TAF
KBAF 020539Z 0206/0306 VRB03KT P6SM SCT090
     FM022100 16004KT P6SM BKN060
     FM030100 19004KT P6SM SCT060=



000
FTUS41 KBOX 020333 AAA
TAFPVD
TAF AMD
KPVD 020333Z 0204/0224 05006KT P6SM SCT060
     FM021700 11006KT P6SM FEW050
     FM022000 15007KT P6SM FEW040
     FM022200 16007KT P6SM FEW250=



000
FTUS41 KBOX 020333 AAA
TAFPVD
TAF AMD
KPVD 020333Z 0204/0224 05006KT P6SM SCT060
     FM021700 11006KT P6SM FEW050
     FM022000 15007KT P6SM FEW040
     FM022200 16007KT P6SM FEW250=



000
FTUS41 KBOX 020333 AAA
TAFBDL
TAF AMD
KBDL 020333Z 0204/0306 17005KT P6SM BKN060
     FM021400 00000KT P6SM SCT060
     FM022300 18006KT P6SM SCT050=



000
FTUS41 KBOX 020333 AAA
TAFBDL
TAF AMD
KBDL 020333Z 0204/0306 17005KT P6SM BKN060
     FM021400 00000KT P6SM SCT060
     FM022300 18006KT P6SM SCT050=



000
FTUS41 KBOX 020310 AAB
TAFBOS
TAF AMD
KBOS 020310Z 0203/0306 14005KT P6SM SCT010
      TEMPO 0203/0206 BKN010
     FM020700 VRB03KT P6SM SCT060
     FM021800 12007KT P6SM FEW200
     FM030100 16007KT P6SM FEW250
     FM030300 19006KT P6SM SCT050=



000
FTUS41 KBOX 020310 AAB
TAFBOS
TAF AMD
KBOS 020310Z 0203/0306 14005KT P6SM SCT010
      TEMPO 0203/0206 BKN010
     FM020700 VRB03KT P6SM SCT060
     FM021800 12007KT P6SM FEW200
     FM030100 16007KT P6SM FEW250
     FM030300 19006KT P6SM SCT050=



000
FTUS41 KBOX 020310 AAB
TAFBOS
TAF AMD
KBOS 020310Z 0203/0306 14005KT P6SM SCT010
      TEMPO 0203/0206 BKN010
     FM020700 VRB03KT P6SM SCT060
     FM021800 12007KT P6SM FEW200
     FM030100 16007KT P6SM FEW250
     FM030300 19006KT P6SM SCT050=



000
FTUS41 KBOX 020310 AAB
TAFBOS
TAF AMD
KBOS 020310Z 0203/0306 14005KT P6SM SCT010
      TEMPO 0203/0206 BKN010
     FM020700 VRB03KT P6SM SCT060
     FM021800 12007KT P6SM FEW200
     FM030100 16007KT P6SM FEW250
     FM030300 19006KT P6SM SCT050=



000
FTUS41 KBOX 020231 AAA
TAFBOS
TAF AMD
KBOS 020231Z 0203/0306 14005KT P6SM BKN008
     FM020700 VRB03KT P6SM SCT060
     FM021800 12007KT P6SM FEW200
     FM030100 16007KT P6SM FEW250
     FM030300 19006KT P6SM SCT050=



000
FTUS41 KBOX 020231 AAA
TAFBOS
TAF AMD
KBOS 020231Z 0203/0306 14005KT P6SM BKN008
     FM020700 VRB03KT P6SM SCT060
     FM021800 12007KT P6SM FEW200
     FM030100 16007KT P6SM FEW250
     FM030300 19006KT P6SM SCT050=



000
FTUS41 KBOX 012334
TAFPVD
TAF
KPVD 012334Z 0200/0224 05006KT P6SM SCT060
     FM021700 11006KT P6SM FEW050
     FM022000 15007KT P6SM FEW040
     FM022200 16007KT P6SM FEW250=



000
FTUS41 KBOX 012334
TAFORH
TAF
KORH 012334Z 0200/0224 13004KT P6SM BKN050
     FM020800 27004KT P6SM BKN060
     FM020900 00000KT P6SM BKN150=



000
FTUS41 KBOX 012334
TAFBOS
TAF
KBOS 012334Z 0200/0306 12005KT P6SM SCT060
     FM020700 VRB03KT P6SM SCT060
     FM021800 12007KT P6SM FEW200
     FM030100 16007KT P6SM FEW250
     FM030300 19006KT P6SM SCT050=



000
FTUS41 KBOX 012334
TAFACK
TAF
KACK 012334Z 0200/0224 04013KT P6SM OVC010
     FM020300 05009KT P6SM BKN010
     FM020700 04006KT P6SM BKN015
     FM021200 03011KT P6SM BKN020
     FM021300 04011KT P6SM BKN020
     FM021400 04011KT P6SM SCT020=



000
FTUS41 KBOX 012334
TAFBAF
TAF
KBAF 012334Z 0200/0224 00000KT P6SM BKN050
     FM021200 00000KT P6SM SCT060
     FM022300 VRB03KT P6SM BKN050=



000
FTUS41 KBOX 012334
TAFPVD
TAF
KPVD 012334Z 0200/0224 05006KT P6SM SCT060
     FM021700 11006KT P6SM FEW050
     FM022000 15007KT P6SM FEW040
     FM022200 16007KT P6SM FEW250=



000
FTUS41 KBOX 012334
TAFBDL
TAF
KBDL 012334Z 0200/0306 10004KT P6SM BKN060
     FM020300 00000KT P6SM BKN060
     FM021400 00000KT P6SM SCT060
     FM022300 18006KT P6SM SCT050=



000
FTUS41 KBOX 012334
TAFBAF
TAF
KBAF 012334Z 0200/0224 00000KT P6SM BKN050
     FM021200 00000KT P6SM SCT060
     FM022300 VRB03KT P6SM BKN050=



000
FTUS41 KBOX 012334
TAFACK
TAF
KACK 012334Z 0200/0224 04013KT P6SM OVC010
     FM020300 05009KT P6SM BKN010
     FM020700 04006KT P6SM BKN015
     FM021200 03011KT P6SM BKN020
     FM021300 04011KT P6SM BKN020
     FM021400 04011KT P6SM SCT020=



000
FTUS41 KBOX 012334
TAFBDL
TAF
KBDL 012334Z 0200/0306 10004KT P6SM BKN060
     FM020300 00000KT P6SM BKN060
     FM021400 00000KT P6SM SCT060
     FM022300 18006KT P6SM SCT050=



000
FTUS41 KBOX 012334
TAFBOS
TAF
KBOS 012334Z 0200/0306 12005KT P6SM SCT060
     FM020700 VRB03KT P6SM SCT060
     FM021800 12007KT P6SM FEW200
     FM030100 16007KT P6SM FEW250
     FM030300 19006KT P6SM SCT050=



000
FTUS41 KBOX 012334
TAFORH
TAF
KORH 012334Z 0200/0224 13004KT P6SM BKN050
     FM020800 27004KT P6SM BKN060
     FM020900 00000KT P6SM BKN150=



000
FTUS41 KBOX 012334
TAFBOS
TAF
KBOS 012334Z 0200/0306 12005KT P6SM SCT060
     FM020700 VRB03KT P6SM SCT060
     FM021800 12007KT P6SM FEW200
     FM030100 16007KT P6SM FEW250
     FM030300 19006KT P6SM SCT050=



000
FTUS41 KBOX 012334
TAFORH
TAF
KORH 012334Z 0200/0224 13004KT P6SM BKN050
     FM020800 27004KT P6SM BKN060
     FM020900 00000KT P6SM BKN150=



000
FTUS41 KBOX 012334
TAFPVD
TAF
KPVD 012334Z 0200/0224 05006KT P6SM SCT060
     FM021700 11006KT P6SM FEW050
     FM022000 15007KT P6SM FEW040
     FM022200 16007KT P6SM FEW250=



000
FTUS41 KBOX 012334
TAFBOS
TAF
KBOS 012334Z 0200/0306 12005KT P6SM SCT060
     FM020700 VRB03KT P6SM SCT060
     FM021800 12007KT P6SM FEW200
     FM030100 16007KT P6SM FEW250
     FM030300 19006KT P6SM SCT050=



000
FTUS41 KBOX 012334
TAFBDL
TAF
KBDL 012334Z 0200/0306 10004KT P6SM BKN060
     FM020300 00000KT P6SM BKN060
     FM021400 00000KT P6SM SCT060
     FM022300 18006KT P6SM SCT050=



000
FTUS41 KBOX 012334
TAFPVD
TAF
KPVD 012334Z 0200/0224 05006KT P6SM SCT060
     FM021700 11006KT P6SM FEW050
     FM022000 15007KT P6SM FEW040
     FM022200 16007KT P6SM FEW250=



000
FTUS41 KBOX 012334
TAFORH
TAF
KORH 012334Z 0200/0224 13004KT P6SM BKN050
     FM020800 27004KT P6SM BKN060
     FM020900 00000KT P6SM BKN150=



000
FTUS41 KBOX 012334
TAFBDL
TAF
KBDL 012334Z 0200/0306 10004KT P6SM BKN060
     FM020300 00000KT P6SM BKN060
     FM021400 00000KT P6SM SCT060
     FM022300 18006KT P6SM SCT050=



000
FTUS41 KBOX 012334
TAFBAF
TAF
KBAF 012334Z 0200/0224 00000KT P6SM BKN050
     FM021200 00000KT P6SM SCT060
     FM022300 VRB03KT P6SM BKN050=



000
FTUS41 KBOX 012334
TAFACK
TAF
KACK 012334Z 0200/0224 04013KT P6SM OVC010
     FM020300 05009KT P6SM BKN010
     FM020700 04006KT P6SM BKN015
     FM021200 03011KT P6SM BKN020
     FM021300 04011KT P6SM BKN020
     FM021400 04011KT P6SM SCT020=



000
FTUS41 KBOX 012334
TAFBAF
TAF
KBAF 012334Z 0200/0224 00000KT P6SM BKN050
     FM021200 00000KT P6SM SCT060
     FM022300 VRB03KT P6SM BKN050=



000
FTUS41 KBOX 012334
TAFACK
TAF
KACK 012334Z 0200/0224 04013KT P6SM OVC010
     FM020300 05009KT P6SM BKN010
     FM020700 04006KT P6SM BKN015
     FM021200 03011KT P6SM BKN020
     FM021300 04011KT P6SM BKN020
     FM021400 04011KT P6SM SCT020=



000
FTUS41 KBOX 012043 AAA
TAFACK
TAF AMD
KACK 012043Z 0121/0218 02016KT 6SM -SHRA BKN008 OVC013
     FM020100 05009KT P6SM -SHRA BKN015
     FM020400 06008KT P6SM BKN140=



000
FTUS41 KBOX 012043 AAA
TAFBOS
TAF AMD
KBOS 012043Z 0121/0224 08010KT P6SM FEW030 SCT060 BKN250
     FM020200 13004KT P6SM BKN150
     FM021700 12006KT P6SM SCT200=



000
FTUS41 KBOX 012043 AAA
TAFBDL
TAF AMD
KBDL 012043Z 0121/0224 VRB03KT P6SM BKN050 BKN080 BKN200
     FM020200 17004KT P6SM BKN050
     FM021400 00000KT P6SM SCT050
     FM022100 16004KT P6SM SCT050=



000
FTUS41 KBOX 012043 AAA
TAFPVD
TAF AMD
KPVD 012043Z 0121/0218 04006KT P6SM BKN040 BKN250
     FM020300 VRB03KT P6SM SCT150=



000
FTUS41 KBOX 012043 AAA
TAFBAF
TAF AMD
KBAF 012043Z 0121/0218 VRB03KT P6SM BKN050 OVC060
     FM021300 00000KT P6SM SCT050=



000
FTUS41 KBOX 012043 AAA
TAFBOS
TAF AMD
KBOS 012043Z 0121/0224 08010KT P6SM FEW030 SCT060 BKN250
     FM020200 13004KT P6SM BKN150
     FM021700 12006KT P6SM SCT200=



000
FTUS41 KBOX 012043 AAA
TAFORH
TAF AMD
KORH 012043Z 0121/0218 04005KT P6SM FEW045 OVC050
     FM020000 12004KT P6SM SCT060
     FM020200 VRB03KT P6SM BKN050
     FM021500 VRB03KT P6SM SCT050=



000
FTUS41 KBOX 012043 AAA
TAFPVD
TAF AMD
KPVD 012043Z 0121/0218 04006KT P6SM BKN040 BKN250
     FM020300 VRB03KT P6SM SCT150=



000
FTUS41 KBOX 012043 AAA
TAFACK
TAF AMD
KACK 012043Z 0121/0218 02016KT 6SM -SHRA BKN008 OVC013
     FM020100 05009KT P6SM -SHRA BKN015
     FM020400 06008KT P6SM BKN140=



000
FTUS41 KBOX 012043 AAA
TAFBAF
TAF AMD
KBAF 012043Z 0121/0218 VRB03KT P6SM BKN050 OVC060
     FM021300 00000KT P6SM SCT050=



000
FTUS41 KBOX 012043 AAA
TAFBDL
TAF AMD
KBDL 012043Z 0121/0224 VRB03KT P6SM BKN050 BKN080 BKN200
     FM020200 17004KT P6SM BKN050
     FM021400 00000KT P6SM SCT050
     FM022100 16004KT P6SM SCT050=



000
FTUS41 KBOX 012043 AAA
TAFORH
TAF AMD
KORH 012043Z 0121/0218 04005KT P6SM FEW045 OVC050
     FM020000 12004KT P6SM SCT060
     FM020200 VRB03KT P6SM BKN050
     FM021500 VRB03KT P6SM SCT050=



000
FTUS41 KBOX 011735
TAFACK
TAF
KACK 011735Z 0118/0218 02016KT P6SM OVC011
     FM020100 05009KT P6SM BKN015
     FM020400 06008KT P6SM BKN140=



000
FTUS41 KBOX 011735
TAFBDL
TAF
KBDL 011735Z 0118/0224 01007KT P6SM FEW040 BKN060
     FM012300 11004KT P6SM BKN050
     FM020200 17004KT P6SM BKN050
     FM021400 00000KT P6SM SCT050
     FM022100 16004KT P6SM SCT050=



000
FTUS41 KBOX 011735
TAFPVD
TAF
KPVD 011735Z 0118/0218 05006KT P6SM BKN035
     FM011900 06007KT P6SM BKN140
     FM020300 VRB03KT P6SM SCT150=



000
FTUS41 KBOX 011735
TAFORH
TAF
KORH 011735Z 0118/0218 07006KT P6SM BKN030 OVC050
     FM020000 12004KT P6SM SCT060
     FM020200 VRB03KT P6SM BKN050
     FM021500 VRB03KT P6SM SCT050=



000
FTUS41 KBOX 011735
TAFBOS
TAF
KBOS 011735Z 0118/0224 09014KT P6SM SCT030 BKN250
     FM020200 13004KT P6SM BKN150
     FM021700 12006KT P6SM SCT200=



000
FTUS41 KBOX 011735
TAFACK
TAF
KACK 011735Z 0118/0218 02016KT P6SM OVC011
     FM020100 05009KT P6SM BKN015
     FM020400 06008KT P6SM BKN140=



000
FTUS41 KBOX 011735
TAFPVD
TAF
KPVD 011735Z 0118/0218 05006KT P6SM BKN035
     FM011900 06007KT P6SM BKN140
     FM020300 VRB03KT P6SM SCT150=



000
FTUS41 KBOX 011735
TAFBAF
TAF
KBAF 011735Z 0118/0218 00000KT P6SM OVC045
     FM021300 00000KT P6SM SCT050=



000
FTUS41 KBOX 011425 AAA
TAFBDL
TAF AMD
KBDL 011425Z 0114/0218 06011KT P6SM FEW028 BKN070 BKN250
     FM020000 15005KT P6SM BKN050
     FM020600 00000KT P6SM BKN080
     FM021400 00000KT P6SM SCT150=



000
FTUS41 KBOX 011425 AAA
TAFBDL
TAF AMD
KBDL 011425Z 0114/0218 06011KT P6SM FEW028 BKN070 BKN250
     FM020000 15005KT P6SM BKN050
     FM020600 00000KT P6SM BKN080
     FM021400 00000KT P6SM SCT150=



000
FTUS41 KBOX 011423 AAA
TAFPVD
TAF AMD
KPVD 011423Z 0114/0212 04008KT P6SM OVC020
     FM011800 05009KT P6SM BKN035
     FM011900 05009KT P6SM SCT140
     FM020200 07005KT P6SM SCT150=



000
FTUS41 KBOX 011422 AAA
TAFORH
TAF AMD
KORH 011422Z 0114/0212 06009KT P6SM OVC016
     FM011700 06006KT P6SM BKN040
     FM020100 12004KT P6SM BKN120
     FM020300 00000KT P6SM BKN080=



000
FTUS41 KBOX 011422 AAA
TAFORH
TAF AMD
KORH 011422Z 0114/0212 06009KT P6SM OVC016
     FM011700 06006KT P6SM BKN040
     FM020100 12004KT P6SM BKN120
     FM020300 00000KT P6SM BKN080=



000
FTUS41 KBOX 011422 AAA
TAFBOS
TAF AMD
KBOS 011422Z 0114/0218 05007KT P6SM OVC022
     FM011700 07009KT P6SM BKN140
     FM020000 10005KT P6SM SCT150
     FM020600 VRB03KT P6SM BKN080
     FM021500 11006KT P6SM SCT150=



000
FTUS41 KBOX 011422 AAA
TAFBOS
TAF AMD
KBOS 011422Z 0114/0218 05007KT P6SM OVC022
     FM011700 07009KT P6SM BKN140
     FM020000 10005KT P6SM SCT150
     FM020600 VRB03KT P6SM BKN080
     FM021500 11006KT P6SM SCT150=



000
FTUS41 KBOX 011121
TAFBAF
TAF
KBAF 011121Z 0112/0212 08005KT P6SM BKN045
     FM020000 15005KT P6SM BKN050
     FM020600 00000KT P6SM BKN080=



000
FTUS41 KBOX 011121
TAFPVD
TAF
KPVD 011121Z 0112/0212 04008KT P6SM OVC020
     FM011800 05009KT P6SM BKN035
     FM011900 05009KT P6SM SCT140
     FM020200 07005KT P6SM SCT150=



000
FTUS41 KBOX 011121
TAFACK
TAF
KACK 011121Z 0112/0212 04014G20KT P6SM OVC015
     FM020100 05009KT P6SM BKN140=



000
FTUS41 KBOX 011121
TAFBOS
TAF
KBOS 011121Z 0112/0218 04010KT P6SM OVC015
     FM011700 07009KT P6SM BKN140
     FM020000 10005KT P6SM SCT150
     FM020600 VRB03KT P6SM BKN080
     FM021500 11006KT P6SM SCT150=



000
FTUS41 KBOX 011121
TAFBDL
TAF
KBDL 011121Z 0112/0218 08005KT P6SM BKN040
     FM020000 15005KT P6SM BKN050
     FM020600 00000KT P6SM BKN080
     FM021400 00000KT P6SM SCT150=



000
FTUS41 KBOX 011121
TAFORH
TAF
KORH 011121Z 0112/0212 04005KT P6SM OVC025
     FM011700 06006KT P6SM BKN040
     FM020100 12004KT P6SM BKN120
     FM020300 00000KT P6SM BKN080=



000
FTUS41 KBOX 011121
TAFPVD
TAF
KPVD 011121Z 0112/0212 04008KT P6SM OVC020
     FM011800 05009KT P6SM BKN035
     FM011900 05009KT P6SM SCT140
     FM020200 07005KT P6SM SCT150=



000
FTUS41 KBOX 011121
TAFBDL
TAF
KBDL 011121Z 0112/0218 08005KT P6SM BKN040
     FM020000 15005KT P6SM BKN050
     FM020600 00000KT P6SM BKN080
     FM021400 00000KT P6SM SCT150=



000
FTUS41 KBOX 011121
TAFORH
TAF
KORH 011121Z 0112/0212 04005KT P6SM OVC025
     FM011700 06006KT P6SM BKN040
     FM020100 12004KT P6SM BKN120
     FM020300 00000KT P6SM BKN080=



000
FTUS41 KBOX 011121
TAFBAF
TAF
KBAF 011121Z 0112/0212 08005KT P6SM BKN045
     FM020000 15005KT P6SM BKN050
     FM020600 00000KT P6SM BKN080=



000
FTUS41 KBOX 011121
TAFBOS
TAF
KBOS 011121Z 0112/0218 04010KT P6SM OVC015
     FM011700 07009KT P6SM BKN140
     FM020000 10005KT P6SM SCT150
     FM020600 VRB03KT P6SM BKN080
     FM021500 11006KT P6SM SCT150=



000
FTUS41 KBOX 011121
TAFACK
TAF
KACK 011121Z 0112/0212 04014G20KT P6SM OVC015
     FM020100 05009KT P6SM BKN140=



000
FTUS41 KBOX 010825 AAB
TAFBOS
TAF AMD
KBOS 010825Z 0108/0212 06005KT P6SM BKN015 OVC080
     FM011300 05009KT P6SM BKN015
     FM011600 09009KT P6SM BKN035
     FM020000 10005KT P6SM SCT150
     FM020600 VRB03KT P6SM BKN080=



000
FTUS41 KBOX 010825 AAB
TAFBOS
TAF AMD
KBOS 010825Z 0108/0212 06005KT P6SM BKN015 OVC080
     FM011300 05009KT P6SM BKN015
     FM011600 09009KT P6SM BKN035
     FM020000 10005KT P6SM SCT150
     FM020600 VRB03KT P6SM BKN080=



000
FTUS41 KBOX 010810 AAA
TAFPVD
TAF AMD
KPVD 010810Z 0108/0206 04005KT P6SM BKN030
     FM011100 03007KT P6SM BKN015
     FM011500 04010KT P6SM BKN035
     FM011900 05009KT P6SM SCT140
     FM020200 07005KT P6SM SCT150=



000
FTUS41 KBOX 010810 AAA
TAFPVD
TAF AMD
KPVD 010810Z 0108/0206 04005KT P6SM BKN030
     FM011100 03007KT P6SM BKN015
     FM011500 04010KT P6SM BKN035
     FM011900 05009KT P6SM SCT140
     FM020200 07005KT P6SM SCT150=



000
FTUS41 KBOX 010809 AAA
TAFBDL
TAF AMD
KBDL 010809Z 0108/0212 VRB03KT P6SM BKN040
     FM011000 VRB03KT P6SM BKN060=



000
FTUS41 KBOX 010809 AAA
TAFBDL
TAF AMD
KBDL 010809Z 0108/0212 VRB03KT P6SM BKN040
     FM011000 VRB03KT P6SM BKN060=



000
FTUS41 KBOX 010809 AAA
TAFBOS
TAF AMD
KBOS 010809Z 0108/0212 05005KT P6SM SCT025 OVC080
     FM010930 05006KT P6SM BKN025
     FM011300 05009KT P6SM BKN015
     FM011600 09009KT P6SM BKN035
     FM020000 10005KT P6SM SCT150
     FM020600 VRB03KT P6SM BKN080=



000
FTUS41 KBOX 010809 AAA
TAFBOS
TAF AMD
KBOS 010809Z 0108/0212 05005KT P6SM SCT025 OVC080
     FM010930 05006KT P6SM BKN025
     FM011300 05009KT P6SM BKN015
     FM011600 09009KT P6SM BKN035
     FM020000 10005KT P6SM SCT150
     FM020600 VRB03KT P6SM BKN080=



000
FTUS41 KBOX 010809 AAA
TAFORH
TAF AMD
KORH 010809Z 0108/0206 06005KT P6SM BKN015 BKN050
     FM011100 04005KT P6SM BKN015
     FM011300 05005KT P6SM BKN035
     FM020100 12004KT P6SM BKN120
     FM020300 00000KT P6SM BKN080=



000
FTUS41 KBOX 010809 AAA
TAFORH
TAF AMD
KORH 010809Z 0108/0206 06005KT P6SM BKN015 BKN050
     FM011100 04005KT P6SM BKN015
     FM011300 05005KT P6SM BKN035
     FM020100 12004KT P6SM BKN120
     FM020300 00000KT P6SM BKN080=



000
FTUS41 KBOX 010538
TAFBAF
TAF
KBAF 010538Z 0106/0206 VRB03KT P6SM BKN045
     FM011100 00000KT P6SM BKN040
     FM011800 05006KT P6SM BKN040
     FM012200 11004KT P6SM BKN050
     FM020200 00000KT P6SM BKN080=



000
FTUS41 KBOX 010538
TAFBDL
TAF
KBDL 010538Z 0106/0212 VRB03KT P6SM BKN080
     FM011000 VRB03KT P6SM BKN060=



000
FTUS41 KBOX 010538
TAFPVD
TAF
KPVD 010538Z 0106/0206 04005KT P6SM BKN050
     FM011100 03007KT P6SM BKN025
     FM011500 04010KT P6SM BKN035
     FM011900 05009KT P6SM SCT140
     FM020200 07005KT P6SM SCT150=



000
FTUS41 KBOX 010538
TAFACK
TAF
KACK 010538Z 0106/0206 03010KT P6SM SCT045
     FM011000 03011KT P6SM BKN015
     FM020100 05009KT P6SM BKN140=



000
FTUS41 KBOX 010538
TAFBOS
TAF
KBOS 010538Z 0106/0212 06005KT P6SM SCT015 OVC080
     FM010900 05006KT P6SM BKN015
     FM011300 05009KT P6SM BKN015
     FM011600 09009KT P6SM BKN035
     FM020000 10005KT P6SM SCT150
     FM020600 VRB03KT P6SM BKN080=



000
FTUS41 KBOX 010538
TAFORH
TAF
KORH 010538Z 0106/0206 06005KT P6SM BKN050
     FM011100 04005KT P6SM BKN025
     FM011300 05005KT P6SM BKN035
     FM020100 12004KT P6SM BKN120
     FM020300 00000KT P6SM BKN080=



000
FTUS41 KBOX 010538
TAFBAF
TAF
KBAF 010538Z 0106/0206 VRB03KT P6SM BKN045
     FM011100 00000KT P6SM BKN040
     FM011800 05006KT P6SM BKN040
     FM012200 11004KT P6SM BKN050
     FM020200 00000KT P6SM BKN080=



000
FTUS41 KBOX 010538
TAFBDL
TAF
KBDL 010538Z 0106/0212 VRB03KT P6SM BKN080
     FM011000 VRB03KT P6SM BKN060=



000
FTUS41 KBOX 010538
TAFORH
TAF
KORH 010538Z 0106/0206 06005KT P6SM BKN050
     FM011100 04005KT P6SM BKN025
     FM011300 05005KT P6SM BKN035
     FM020100 12004KT P6SM BKN120
     FM020300 00000KT P6SM BKN080=



000
FTUS41 KBOX 010538
TAFPVD
TAF
KPVD 010538Z 0106/0206 04005KT P6SM BKN050
     FM011100 03007KT P6SM BKN025
     FM011500 04010KT P6SM BKN035
     FM011900 05009KT P6SM SCT140
     FM020200 07005KT P6SM SCT150=



000
FTUS41 KBOX 010538
TAFBOS
TAF
KBOS 010538Z 0106/0212 06005KT P6SM SCT015 OVC080
     FM010900 05006KT P6SM BKN015
     FM011300 05009KT P6SM BKN015
     FM011600 09009KT P6SM BKN035
     FM020000 10005KT P6SM SCT150
     FM020600 VRB03KT P6SM BKN080=



000
FTUS41 KBOX 010538
TAFACK
TAF
KACK 010538Z 0106/0206 03010KT P6SM SCT045
     FM011000 03011KT P6SM BKN015
     FM020100 05009KT P6SM BKN140=



000
FTUS41 KBOX 010538
TAFACK
TAF
KACK 010538Z 0106/0206 03010KT P6SM SCT045
     FM011000 03011KT P6SM BKN015
     FM020100 05009KT P6SM BKN140=



000
FTUS41 KBOX 010538
TAFBAF
TAF
KBAF 010538Z 0106/0206 VRB03KT P6SM BKN045
     FM011100 00000KT P6SM BKN040
     FM011800 05006KT P6SM BKN040
     FM012200 11004KT P6SM BKN050
     FM020200 00000KT P6SM BKN080=



000
FTUS41 KBOX 010538
TAFPVD
TAF
KPVD 010538Z 0106/0206 04005KT P6SM BKN050
     FM011100 03007KT P6SM BKN025
     FM011500 04010KT P6SM BKN035
     FM011900 05009KT P6SM SCT140
     FM020200 07005KT P6SM SCT150=



000
FTUS41 KBOX 010538
TAFBOS
TAF
KBOS 010538Z 0106/0212 06005KT P6SM SCT015 OVC080
     FM010900 05006KT P6SM BKN015
     FM011300 05009KT P6SM BKN015
     FM011600 09009KT P6SM BKN035
     FM020000 10005KT P6SM SCT150
     FM020600 VRB03KT P6SM BKN080=



000
FTUS41 KBOX 010538
TAFORH
TAF
KORH 010538Z 0106/0206 06005KT P6SM BKN050
     FM011100 04005KT P6SM BKN025
     FM011300 05005KT P6SM BKN035
     FM020100 12004KT P6SM BKN120
     FM020300 00000KT P6SM BKN080=



000
FTUS41 KBOX 010538
TAFBDL
TAF
KBDL 010538Z 0106/0212 VRB03KT P6SM BKN080
     FM011000 VRB03KT P6SM BKN060=



000
FTUS41 KBOX 010538
TAFBDL
TAF
KBDL 010538Z 0106/0212 VRB03KT P6SM BKN080
     FM011000 VRB03KT P6SM BKN060=



000
FTUS41 KBOX 010538
TAFBOS
TAF
KBOS 010538Z 0106/0212 06005KT P6SM SCT015 OVC080
     FM010900 05006KT P6SM BKN015
     FM011300 05009KT P6SM BKN015
     FM011600 09009KT P6SM BKN035
     FM020000 10005KT P6SM SCT150
     FM020600 VRB03KT P6SM BKN080=



000
FTUS41 KBOX 010538
TAFORH
TAF
KORH 010538Z 0106/0206 06005KT P6SM BKN050
     FM011100 04005KT P6SM BKN025
     FM011300 05005KT P6SM BKN035
     FM020100 12004KT P6SM BKN120
     FM020300 00000KT P6SM BKN080=



000
FTUS41 KBOX 010538
TAFPVD
TAF
KPVD 010538Z 0106/0206 04005KT P6SM BKN050
     FM011100 03007KT P6SM BKN025
     FM011500 04010KT P6SM BKN035
     FM011900 05009KT P6SM SCT140
     FM020200 07005KT P6SM SCT150=



000
FTUS41 KBOX 010538
TAFBAF
TAF
KBAF 010538Z 0106/0206 VRB03KT P6SM BKN045
     FM011100 00000KT P6SM BKN040
     FM011800 05006KT P6SM BKN040
     FM012200 11004KT P6SM BKN050
     FM020200 00000KT P6SM BKN080=



000
FTUS41 KBOX 010538
TAFACK
TAF
KACK 010538Z 0106/0206 03010KT P6SM SCT045
     FM011000 03011KT P6SM BKN015
     FM020100 05009KT P6SM BKN140=



    US Dept of Commerce
    National Oceanic and Atmospheric Administration
    National Weather Service
    1325 East West Highway
    Silver Spring, MD 20910
    Page Author: NWS Internet Services Team
Disclaimer
Information Quality
Credits
Glossary
Privacy Policy
Freedom of Information Act (FOIA)
About Us
Career Opportunities